Keresley, United Kingdom
Current Conditions -  °F | °C
As of 2:20 PM on Tuesday 21 Oct 2014 (Local Time) from EGBE Reporting Station
Rain Showers Rain Showers  
Wind Chill: 55°   Ceiling: Unl
Heat Index: 55°   Visibility: 6mi
Dew Point: 39°   Wind: 23mph
Humidity: 54%   Direction: 280°W
Pressure: 29.71"   Gusts: 37mph
Location:  52.45°N, 1.53°W
Report Text: EGBE 211320Z 28020G32KT 260V320 9999 VCSH FEW025 SCT040CB 13/04 Q1006 RESHRA
Loading
Personal Weather Stations






























Interactive Weather Map
Tropical Storm Tracking
New forecast layout! Learn more

10-Day Weather Forecast

Advertisements
Track Severe Weather on mobile